createdAt,value
2019-05-14T00:00:16.387Z,8.30
2019-05-14T00:00:52.243Z,7.75
2019-05-14T00:01:25.765Z,8.30
2019-05-14T00:02:02.557Z,8.23
2019-05-14T00:02:35.373Z,8.28
2019-05-14T00:03:08.810Z,8.53
2019-05-14T00:03:43.383Z,8.30
2019-05-14T00:04:17.351Z,8.28
2019-05-14T00:04:51.393Z,7.70
2019-05-14T00:05:25.336Z,7.65
2019-05-14T00:05:59.308Z,8.90
2019-05-14T00:06:33.088Z,7.60
2019-05-14T00:07:07.050Z,7.83
2019-05-14T00:07:41.419Z,8.38
2019-05-14T00:08:17.573Z,8.75
2019-05-14T00:08:52.263Z,8.83
2019-05-14T00:09:26.343Z,9.38
2019-05-14T00:10:01.180Z,8.03
2019-05-14T00:10:35.391Z,7.92
2019-05-14T00:11:09.365Z,8.58
2019-05-14T00:11:43.149Z,7.70
2019-05-14T00:12:16.740Z,8.30
2019-05-14T00:12:51.315Z,8.20
2019-05-14T00:13:25.328Z,9.00
2019-05-14T00:14:01.234Z,9.65
2019-05-14T00:14:39.616Z,8.85
2019-05-14T00:15:11.057Z,7.03
2019-05-14T00:15:45.172Z,8.60
2019-05-14T00:16:21.654Z,9.23
2019-05-14T00:16:54.215Z,8.95
2019-05-14T00:17:28.168Z,9.15
2019-05-14T00:18:02.131Z,9.08
2019-05-14T00:18:35.913Z,9.65
2019-05-14T00:19:11.202Z,10.05
2019-05-14T00:19:45.471Z,10.45
2019-05-14T00:20:19.278Z,9.73
2019-05-14T00:20:53.253Z,9.25
2019-05-14T00:21:26.836Z,8.55
2019-05-14T00:22:02.097Z,9.20
2019-05-14T00:22:36.286Z,9.73
2019-05-14T00:23:11.841Z,9.35
2019-05-14T00:23:45.462Z,8.80
2019-05-14T00:24:21.600Z,9.28
2019-05-14T00:24:55.041Z,9.20
2019-05-14T00:25:31.122Z,9.43
2019-05-14T00:26:04.103Z,9.48
2019-05-14T00:26:38.068Z,9.75
2019-05-14T00:27:11.919Z,10.25
2019-05-14T00:27:45.889Z,9.73
2019-05-14T00:28:21.094Z,9.85
2019-05-14T00:28:54.990Z,9.63
2019-05-14T00:29:32.153Z,9.53
2019-05-14T00:30:06.962Z,10.10
2019-05-14T00:30:42.244Z,9.80
2019-05-14T00:31:16.011Z,9.75
2019-05-14T00:31:51.688Z,9.83
2019-05-14T00:32:25.585Z,10.32
2019-05-14T00:33:01.011Z,10.25
2019-05-14T00:33:35.055Z,10.55
2019-05-14T00:34:11.019Z,10.25
2019-05-14T00:34:44.461Z,10.98
2019-05-14T00:35:18.066Z,10.78
2019-05-14T00:35:51.846Z,9.83
2019-05-14T00:36:25.811Z,10.85
2019-05-14T00:37:01.582Z,11.18
2019-05-14T00:37:34.889Z,11.33
2019-05-14T00:38:08.862Z,11.80
2019-05-14T00:38:42.827Z,10.60
2019-05-14T00:39:16.612Z,10.53
2019-05-14T00:39:52.160Z,10.95
2019-05-14T00:40:25.824Z,11.43
2019-05-14T00:41:01.724Z,11.40
2019-05-14T00:41:35.597Z,11.00
2019-05-14T00:42:09.191Z,11.10
2019-05-14T00:42:42.991Z,11.35
2019-05-14T00:43:16.979Z,10.95
2019-05-14T00:43:51.482Z,12.10
2019-05-14T00:44:25.077Z,11.15
2019-05-14T00:45:01.071Z,11.78
2019-05-14T00:45:34.652Z,11.85
2019-05-14T00:46:08.441Z,12.05
2019-05-14T00:46:42.045Z,11.63
2019-05-14T00:47:16.014Z,11.05
2019-05-14T00:47:52.336Z,12.00
2019-05-14T00:48:25.426Z,11.65
2019-05-14T00:48:59.047Z,10.95
2019-05-14T00:49:32.831Z,11.55
2019-05-14T00:50:07.842Z,11.80
2019-05-14T00:50:42.168Z,11.88
2019-05-14T00:51:15.631Z,11.73
2019-05-14T00:51:51.758Z,10.98
2019-05-14T00:52:25.215Z,11.55
2019-05-14T00:52:59.004Z,11.20
2019-05-14T00:53:32.604Z,11.83
2019-05-14T00:54:06.602Z,10.68
2019-05-14T00:54:41.681Z,11.73
2019-05-14T00:55:15.944Z,11.60
2019-05-14T00:55:51.703Z,11.65
2019-05-14T00:56:24.984Z,11.03
2019-05-14T00:57:01.359Z,11.22
2019-05-14T00:57:34.568Z,10.30
2019-05-14T00:58:07.987Z,11.35
2019-05-14T00:58:41.954Z,11.60
2019-05-14T00:59:15.911Z,12.60
2019-05-14T00:59:51.933Z,11.85
2019-05-14T01:00:24.996Z,10.70
2019-05-14T01:01:01.332Z,11.43
2019-05-14T01:01:34.392Z,11.08
2019-05-14T01:02:08.358Z,11.35
2019-05-14T01:02:41.965Z,11.93
2019-05-14T01:03:15.746Z,11.57
2019-05-14T01:03:51.921Z,11.20
2019-05-14T01:04:25.330Z,11.45
2019-05-14T01:04:58.748Z,10.25
2019-05-14T01:05:32.736Z,11.18
2019-05-14T01:06:06.723Z,11.33
2019-05-14T01:06:42.085Z,10.98
2019-05-14T01:07:15.759Z,11.18
2019-05-14T01:07:51.412Z,11.90
2019-05-14T01:08:25.311Z,11.03
2019-05-14T01:09:01.358Z,10.25
2019-05-14T01:09:34.528Z,10.65
2019-05-14T01:10:08.310Z,10.72
2019-05-14T01:10:42.281Z,10.00
2019-05-14T01:11:16.273Z,10.38
2019-05-14T01:11:51.313Z,10.20
2019-05-14T01:12:25.382Z,10.48
2019-05-14T01:13:01.243Z,11.08
2019-05-14T01:13:34.790Z,10.60
2019-05-14T01:14:08.388Z,11.12
2019-05-14T01:14:42.698Z,11.05
2019-05-14T01:15:16.504Z,10.45
2019-05-14T01:15:52.093Z,10.15
2019-05-14T01:16:25.741Z,10.68
2019-05-14T01:17:01.795Z,10.93
2019-05-14T01:17:35.155Z,9.88
2019-05-14T01:18:11.226Z,10.53
2019-05-14T01:18:44.171Z,10.65
2019-05-14T01:19:18.144Z,10.90
2019-05-14T01:19:52.112Z,11.35
2019-05-14T01:20:25.906Z,10.53
2019-05-14T01:21:01.143Z,11.05
2019-05-14T01:21:35.277Z,10.20
2019-05-14T01:22:09.079Z,10.55
2019-05-14T01:22:43.067Z,11.60
2019-05-14T01:23:16.668Z,11.45
2019-05-14T01:23:51.396Z,10.43
2019-05-14T01:24:25.522Z,11.15
2019-05-14T01:25:01.509Z,11.68
2019-05-14T01:25:34.619Z,11.50
2019-05-14T01:26:08.593Z,11.30
2019-05-14T01:26:42.563Z,12.25
2019-05-14T01:27:16.345Z,10.28
2019-05-14T01:27:51.763Z,10.20
2019-05-14T01:28:25.612Z,11.45
2019-05-14T01:29:01.232Z,11.08
2019-05-14T01:29:35.016Z,12.05
2019-05-14T01:30:08.611Z,12.23
2019-05-14T01:30:42.409Z,11.90
2019-05-14T01:31:16.369Z,12.23
2019-05-14T01:31:51.996Z,12.23
2019-05-14T01:32:25.396Z,11.30
2019-05-14T01:33:01.540Z,12.05
2019-05-14T01:33:35.088Z,11.10
2019-05-14T01:34:11.029Z,10.90
2019-05-14T01:34:44.142Z,11.60
2019-05-14T01:35:18.114Z,11.22
2019-05-14T01:35:51.882Z,11.68
2019-05-14T01:36:25.850Z,10.80
2019-05-14T01:36:59.450Z,11.25
2019-05-14T01:37:33.230Z,10.40
2019-05-14T01:38:07.195Z,11.05
2019-05-14T01:38:41.896Z,10.43
2019-05-14T01:39:15.504Z,9.78
2019-05-14T01:39:51.767Z,10.50
2019-05-14T01:40:25.112Z,9.85
2019-05-14T01:41:01.590Z,10.68
2019-05-14T01:41:34.224Z,10.23
2019-05-14T01:42:08.187Z,9.78
2019-05-14T01:42:41.968Z,10.63
2019-05-14T01:43:15.944Z,11.35
2019-05-14T01:43:51.255Z,11.53
2019-05-14T01:44:24.990Z,11.20
2019-05-14T01:44:58.977Z,10.75
2019-05-14T01:45:33.539Z,10.55
2019-05-14T01:46:06.952Z,10.58
2019-05-14T01:46:42.001Z,10.70
2019-05-14T01:47:16.287Z,10.90
2019-05-14T01:47:51.982Z,10.53
2019-05-14T01:48:25.325Z,10.20
2019-05-14T01:49:01.375Z,11.18
2019-05-14T01:49:34.724Z,11.50
2019-05-14T01:50:11.242Z,10.85
2019-05-14T01:50:44.630Z,11.28
2019-05-14T01:51:18.432Z,11.10
2019-05-14T01:51:52.395Z,11.18
2019-05-14T01:52:26.367Z,11.22
2019-05-14T01:53:01.236Z,10.90
2019-05-14T01:53:35.408Z,12.13
2019-05-14T01:54:11.762Z,11.25
2019-05-14T01:54:44.816Z,11.48
2019-05-14T01:55:18.422Z,10.95
2019-05-14T01:55:52.391Z,11.35
2019-05-14T01:56:26.198Z,11.20
2019-05-14T01:57:02.077Z,11.73
2019-05-14T01:57:35.433Z,11.88
2019-05-14T01:58:11.363Z,11.43
2019-05-14T01:58:44.835Z,10.55
2019-05-14T01:59:18.802Z,11.90
2019-05-14T01:59:52.229Z,11.65
2019-05-14T02:00:26.392Z,12.63
2019-05-14T02:01:02.145Z,12.05
2019-05-14T02:01:36.024Z,10.60
2019-05-14T02:02:11.649Z,11.97
2019-05-14T02:02:45.283Z,11.83
2019-05-14T02:03:21.355Z,12.07
2019-05-14T02:03:54.758Z,11.40
2019-05-14T02:04:28.361Z,11.68
2019-05-14T02:05:02.206Z,10.58
2019-05-14T02:05:36.118Z,11.83
2019-05-14T02:06:11.893Z,11.18
2019-05-14T02:06:45.149Z,11.18
2019-05-14T02:07:19.115Z,11.33
2019-05-14T02:07:53.111Z,11.57
2019-05-14T02:08:26.920Z,11.48
2019-05-14T02:09:02.009Z,11.00
2019-05-14T02:09:36.282Z,10.63
2019-05-14T02:10:11.654Z,11.25
2019-05-14T02:10:45.735Z,11.83
2019-05-14T02:11:21.278Z,11.10
2019-05-14T02:11:54.768Z,11.78
2019-05-14T02:12:28.755Z,10.75
2019-05-14T02:13:02.722Z,11.28
2019-05-14T02:13:36.148Z,11.22
2019-05-14T02:14:11.684Z,9.83
2019-05-14T02:14:45.800Z,10.55
2019-05-14T02:15:21.387Z,11.40
2019-05-14T02:15:54.844Z,10.80
2019-05-14T02:16:30.936Z,10.85
2019-05-14T02:17:04.245Z,11.05
2019-05-14T02:17:38.215Z,11.35
2019-05-14T02:18:11.811Z,11.65
2019-05-14T02:18:45.620Z,10.93
2019-05-14T02:19:19.616Z,10.60
2019-05-14T02:19:54.380Z,10.63
2019-05-14T02:20:27.791Z,9.95
2019-05-14T02:21:01.891Z,10.82
2019-05-14T02:21:36.028Z,10.40
2019-05-14T02:22:11.263Z,10.93
2019-05-14T02:22:45.121Z,10.55
2019-05-14T02:23:19.091Z,10.98
2019-05-14T02:23:52.887Z,11.03
2019-05-14T02:24:26.871Z,10.85
2019-05-14T02:25:02.362Z,11.12
2019-05-14T02:25:35.970Z,11.30
2019-05-14T02:26:11.390Z,11.25
2019-05-14T02:26:45.505Z,11.43
2019-05-14T02:27:21.265Z,11.08
2019-05-14T02:27:54.536Z,11.88
2019-05-14T02:28:28.513Z,11.20
2019-05-14T02:29:02.314Z,11.40
2019-05-14T02:29:35.903Z,11.73
2019-05-14T02:30:10.562Z,10.48
2019-05-14T02:30:53.675Z,11.73
2019-05-14T02:31:20.453Z,12.03
2019-05-14T02:31:54.378Z,11.85
2019-05-14T02:32:29.864Z,11.33
2019-05-14T02:33:03.776Z,12.03
2019-05-14T02:33:39.755Z,11.83
2019-05-14T02:34:12.815Z,11.15
2019-05-14T02:34:49.712Z,11.45
2019-05-14T02:35:22.421Z,11.30
2019-05-14T02:35:59.674Z,11.65
2019-05-14T02:36:31.467Z,10.53
2019-05-14T02:37:05.446Z,12.28
2019-05-14T02:37:40.876Z,11.93
2019-05-14T02:38:14.848Z,11.55
2019-05-14T02:38:49.370Z,11.48
2019-05-14T02:39:23.443Z,10.95
2019-05-14T02:39:59.630Z,11.00
2019-05-14T02:40:33.034Z,11.53
2019-05-14T02:41:09.707Z,10.90
2019-05-14T02:41:42.103Z,11.00
2019-05-14T02:42:19.433Z,11.18
2019-05-14T02:42:51.510Z,10.88
2019-05-14T02:43:25.115Z,11.83
2019-05-14T02:43:59.476Z,11.33
2019-05-14T02:44:33.376Z,12.05
2019-05-14T02:45:08.950Z,10.75
2019-05-14T02:46:00.688Z,10.45
2019-05-14T02:46:21.734Z,10.50
2019-05-14T02:46:53.975Z,10.10
2019-05-14T02:47:29.863Z,11.00
2019-05-14T02:48:03.105Z,10.72
2019-05-14T02:48:40.061Z,11.48
2019-05-14T02:49:12.696Z,11.18
2019-05-14T02:49:49.795Z,10.88
2019-05-14T02:50:21.725Z,10.70
2019-05-14T02:50:55.699Z,11.55
2019-05-14T02:51:30.213Z,11.10
2019-05-14T02:52:04.555Z,11.22
2019-05-14T02:52:40.146Z,11.88
2019-05-14T02:53:13.632Z,11.68
2019-05-14T02:53:49.803Z,11.22
2019-05-14T02:54:23.218Z,10.80
2019-05-14T02:54:59.487Z,11.70
2019-05-14T02:55:32.244Z,12.05
2019-05-14T02:56:06.212Z,11.55
2019-05-14T02:56:40.453Z,11.63
2019-05-14T02:57:14.402Z,11.60
2019-05-14T02:57:50.153Z,12.03
2019-05-14T02:58:23.834Z,11.73
2019-05-14T02:59:00.011Z,11.60
2019-05-14T02:59:33.064Z,12.15
2019-05-14T03:00:10.149Z,11.83
2019-05-14T03:00:43.409Z,11.15
2019-05-14T03:01:20.083Z,11.80
2019-05-14T03:01:52.434Z,10.63
2019-05-14T03:02:29.461Z,11.08
2019-05-14T03:03:02.026Z,12.03
2019-05-14T03:03:35.808Z,10.75
2019-05-14T03:04:09.429Z,11.40
2019-05-14T03:04:43.422Z,11.00
2019-05-14T03:05:19.247Z,11.15
2019-05-14T03:05:52.813Z,11.65
2019-05-14T03:06:29.155Z,12.35
2019-05-14T03:07:01.844Z,12.13
2019-05-14T03:07:38.996Z,10.78
2019-05-14T03:08:11.643Z,11.22
2019-05-14T03:08:45.066Z,11.63
2019-05-14T03:09:20.307Z,11.22
2019-05-14T03:09:54.809Z,11.08
2019-05-14T03:10:30.294Z,11.53
2019-05-14T03:11:03.874Z,11.03
2019-05-14T03:11:40.365Z,11.28
2019-05-14T03:12:13.262Z,11.33
2019-05-14T03:12:49.984Z,11.33
2019-05-14T03:13:22.481Z,10.65
2019-05-14T03:13:59.606Z,11.93
2019-05-14T03:14:31.878Z,10.93
2019-05-14T03:15:09.680Z,10.70
2019-05-14T03:15:42.862Z,10.95
2019-05-14T03:16:26.600Z,10.68
2019-05-14T03:16:52.471Z,11.18
2019-05-14T03:17:29.764Z,10.85
2019-05-14T03:18:01.507Z,12.10
2019-05-14T03:18:35.469Z,11.40
2019-05-14T03:19:09.954Z,10.72
2019-05-14T03:19:44.392Z,11.53
2019-05-14T03:20:19.620Z,11.93
2019-05-14T03:20:53.444Z,10.72
2019-05-14T03:21:30.132Z,12.20
2019-05-14T03:22:03.043Z,11.33
2019-05-14T03:22:46.740Z,10.90
2019-05-14T03:23:18.066Z,12.00
2019-05-14T03:23:49.708Z,11.22
2019-05-14T03:24:23.250Z,11.25
2019-05-14T03:24:59.644Z,10.98
2019-05-14T03:25:32.546Z,11.33
2019-05-14T03:26:09.318Z,10.68
2019-05-14T03:26:42.021Z,11.30
2019-05-14T03:27:19.147Z,11.75
2019-05-14T03:27:51.084Z,10.82
2019-05-14T03:28:25.044Z,11.50
2019-05-14T03:29:00.063Z,10.88
2019-05-14T03:29:33.929Z,11.33
2019-05-14T03:30:12.304Z,11.33
2019-05-14T03:30:44.090Z,11.25
2019-05-14T03:31:22.619Z,10.70
2019-05-14T03:31:53.502Z,11.60
2019-05-14T03:32:32.381Z,10.08
2019-05-14T03:33:03.558Z,10.50
2019-05-14T03:33:43.066Z,10.63
2019-05-14T03:34:14.227Z,10.98
2019-05-14T03:34:53.232Z,10.68
2019-05-14T03:35:32.794Z,10.93
2019-05-14T03:36:08.075Z,10.43
2019-05-14T03:36:35.617Z,11.75
2019-05-14T03:37:12.975Z,10.65
2019-05-14T03:37:45.463Z,11.48
2019-05-14T03:38:19.811Z,11.22
2019-05-14T03:38:53.582Z,10.85
2019-05-14T03:39:29.521Z,10.38
2019-05-14T03:40:02.984Z,11.30
2019-05-14T03:40:39.702Z,10.88
2019-05-14T03:41:14.245Z,10.78
2019-05-14T03:41:49.913Z,10.85
2019-05-14T03:42:23.321Z,10.72
2019-05-14T03:42:59.938Z,11.15
2019-05-14T03:43:32.439Z,10.78
2019-05-14T03:44:09.616Z,11.05
2019-05-14T03:44:42.052Z,10.88
2019-05-14T03:45:15.832Z,11.40
2019-05-14T03:45:49.834Z,10.60
2019-05-14T03:46:41.126Z,8.03
2019-05-14T03:47:04.729Z,10.32
2019-05-14T03:47:35.055Z,10.35
2019-05-14T03:48:10.247Z,10.68
2019-05-14T03:48:44.094Z,10.58
2019-05-14T03:49:19.845Z,10.40
2019-05-14T03:49:53.714Z,11.12
2019-05-14T03:50:29.841Z,10.85
2019-05-14T03:51:02.753Z,10.48
2019-05-14T03:51:39.199Z,10.30
2019-05-14T03:52:12.146Z,10.38
2019-05-14T03:52:45.747Z,10.53
2019-05-14T03:53:20.085Z,10.50
2019-05-14T03:54:01.639Z,9.93
2019-05-14T03:54:30.015Z,10.13
2019-05-14T03:55:05.006Z,10.28
2019-05-14T03:55:40.236Z,9.23
2019-05-14T03:56:14.743Z,10.50
2019-05-14T03:56:49.567Z,10.68
2019-05-14T03:57:23.624Z,10.45
2019-05-14T03:57:59.400Z,10.93
2019-05-14T03:58:33.214Z,10.88
2019-05-14T03:59:09.579Z,10.60
2019-05-14T03:59:42.267Z,9.00
2019-05-14T04:00:18.799Z,10.45
2019-05-14T04:00:55.033Z,9.88
2019-05-14T04:01:29.820Z,10.70
2019-05-14T04:02:03.692Z,10.15
2019-05-14T04:02:39.147Z,10.25
2019-05-14T04:03:13.096Z,10.65
2019-05-14T04:03:50.057Z,10.20
2019-05-14T04:04:22.120Z,10.65
2019-05-14T04:04:56.086Z,9.98
2019-05-14T04:05:30.055Z,10.55
2019-05-14T04:06:03.892Z,10.95
2019-05-14T04:06:40.352Z,10.80
2019-05-14T04:07:13.102Z,9.73
2019-05-14T04:07:49.868Z,10.13
2019-05-14T04:08:22.500Z,10.75
2019-05-14T04:09:00.302Z,10.03
2019-05-14T04:09:32.467Z,10.03
2019-05-14T04:10:09.469Z,9.55
2019-05-14T04:10:50.602Z,9.90
2019-05-14T04:11:20.140Z,9.00
2019-05-14T04:11:54.023Z,10.28
2019-05-14T04:12:29.368Z,10.72
2019-05-14T04:13:03.418Z,10.32
2019-05-14T04:13:39.790Z,10.18
2019-05-14T04:14:13.825Z,10.32
2019-05-14T04:14:50.251Z,9.80
2019-05-14T04:15:23.219Z,10.05
2019-05-14T04:15:59.952Z,11.00
2019-05-14T04:16:32.829Z,10.48
2019-05-14T04:17:13.710Z,9.90
2019-05-14T04:17:42.734Z,10.48
2019-05-14T04:18:18.504Z,10.80
2019-05-14T04:18:51.960Z,9.53
2019-05-14T04:19:25.929Z,10.23
2019-05-14T04:20:00.221Z,10.70
2019-05-14T04:20:34.182Z,10.43
2019-05-14T04:21:09.972Z,10.23
2019-05-14T04:21:43.589Z,10.70
2019-05-14T04:22:19.147Z,10.88
2019-05-14T04:22:52.841Z,9.95
2019-05-14T04:23:28.922Z,10.80
2019-05-14T04:24:02.250Z,10.63
2019-05-14T04:24:41.522Z,10.98
2019-05-14T04:25:14.420Z,9.93
2019-05-14T04:25:49.891Z,9.78
2019-05-14T04:26:24.130Z,10.63
2019-05-14T04:27:07.081Z,10.48
2019-05-14T04:27:34.065Z,10.30
2019-05-14T04:28:09.931Z,9.58
2019-05-14T04:28:44.090Z,9.98
2019-05-14T04:29:19.642Z,10.65
2019-05-14T04:29:54.435Z,9.23
2019-05-14T04:30:29.046Z,10.28
2019-05-14T04:31:03.384Z,10.58
2019-05-14T04:31:39.056Z,10.03
2019-05-14T04:32:12.648Z,10.85
2019-05-14T04:32:50.238Z,10.20
2019-05-14T04:33:25.917Z,9.78
2019-05-14T04:34:02.309Z,11.08
2019-05-14T04:34:39.461Z,10.48
2019-05-14T04:35:11.861Z,10.72
2019-05-14T04:35:48.844Z,10.43
2019-05-14T04:36:21.437Z,10.55
2019-05-14T04:36:55.142Z,10.72
2019-05-14T04:37:29.137Z,11.03
2019-05-14T04:38:03.451Z,11.15
2019-05-14T04:38:40.557Z,10.48
2019-05-14T04:39:12.646Z,10.70
2019-05-14T04:39:50.043Z,10.05
2019-05-14T04:40:22.265Z,10.68
2019-05-14T04:40:59.461Z,10.03
2019-05-14T04:41:31.623Z,10.68
2019-05-14T04:42:09.233Z,11.10
2019-05-14T04:42:41.272Z,10.80
2019-05-14T04:43:15.238Z,10.13
2019-05-14T04:43:50.041Z,10.00
2019-05-14T04:44:24.465Z,10.75
2019-05-14T04:45:00.818Z,11.00
2019-05-14T04:45:34.052Z,10.85
2019-05-14T04:46:10.482Z,10.90
2019-05-14T04:46:43.078Z,10.90
2019-05-14T04:47:31.730Z,11.12
2019-05-14T04:47:52.474Z,11.18
2019-05-14T04:48:33.852Z,11.68
2019-05-14T04:49:01.690Z,11.65
2019-05-14T04:49:35.512Z,11.33
2019-05-14T04:50:10.577Z,10.80
2019-05-14T04:50:45.641Z,10.18
2019-05-14T04:51:20.069Z,10.25
2019-05-14T04:51:54.294Z,9.50
2019-05-14T04:52:29.331Z,10.65
2019-05-14T04:53:02.883Z,10.50
2019-05-14T04:53:39.394Z,11.68
2019-05-14T04:54:12.465Z,10.90
2019-05-14T04:54:49.620Z,10.85
2019-05-14T04:55:21.528Z,10.88
2019-05-14T04:55:55.513Z,10.72
2019-05-14T04:56:30.170Z,10.43
2019-05-14T04:57:04.575Z,11.08
2019-05-14T04:57:39.157Z,12.00
2019-05-14T04:58:13.635Z,11.45
2019-05-14T04:58:49.645Z,11.90
2019-05-14T04:59:23.226Z,11.33
2019-05-14T04:59:59.642Z,10.15
2019-05-14T05:00:32.258Z,10.28
2019-05-14T05:01:09.538Z,10.53
2019-05-14T05:01:41.699Z,10.43
2019-05-14T05:02:15.293Z,10.68
2019-05-14T05:02:49.965Z,10.10
2019-05-14T05:03:24.141Z,11.12
2019-05-14T05:03:59.147Z,11.00
2019-05-14T05:04:33.111Z,10.55
2019-05-14T05:05:09.116Z,10.63
2019-05-14T05:05:42.518Z,10.85
2019-05-14T05:06:19.168Z,10.98
2019-05-14T05:06:51.570Z,12.03
2019-05-14T05:07:25.565Z,11.83
2019-05-14T05:07:59.878Z,11.93
2019-05-14T05:08:33.816Z,11.30
2019-05-14T05:09:09.717Z,11.33
2019-05-14T05:09:43.804Z,11.30
2019-05-14T05:10:19.293Z,11.97
2019-05-14T05:10:53.200Z,10.88
2019-05-14T05:11:29.141Z,11.45
2019-05-14T05:12:02.229Z,10.88
2019-05-14T05:12:38.785Z,10.03
2019-05-14T05:13:12.069Z,11.73
2019-05-14T05:13:48.569Z,11.18
2019-05-14T05:14:23.790Z,10.85
2019-05-14T05:14:58.679Z,11.75
2019-05-14T05:15:32.515Z,11.68
2019-05-14T05:16:06.114Z,11.50
2019-05-14T05:16:40.083Z,12.00
2019-05-14T05:17:13.870Z,12.20
2019-05-14T05:17:52.111Z,11.93
2019-05-14T05:18:23.095Z,11.97
2019-05-14T05:18:59.443Z,12.03
2019-05-14T05:19:32.521Z,12.33
2019-05-14T05:20:09.961Z,11.83
2019-05-14T05:20:42.628Z,12.13
2019-05-14T05:21:18.616Z,10.95
2019-05-14T05:21:52.217Z,12.28
2019-05-14T05:22:28.460Z,11.43
2019-05-14T05:23:01.253Z,12.58
2019-05-14T05:23:35.224Z,12.82
2019-05-14T05:24:09.291Z,11.08
2019-05-14T05:24:43.523Z,13.62
2019-05-14T05:25:18.867Z,12.20
2019-05-14T05:25:52.564Z,12.37
2019-05-14T05:26:28.639Z,13.55
2019-05-14T05:27:02.157Z,12.33
2019-05-14T05:27:38.003Z,11.88
2019-05-14T05:28:11.258Z,11.60
2019-05-14T05:29:00.048Z,13.10
2019-05-14T05:29:20.675Z,12.33
2019-05-14T05:29:54.297Z,11.63
2019-05-14T05:30:29.447Z,12.65
2019-05-14T05:31:03.816Z,12.33
2019-05-14T05:31:38.228Z,11.28
2019-05-14T05:32:11.987Z,12.70
2019-05-14T05:32:45.780Z,12.30
2019-05-14T05:33:19.743Z,12.00
2019-05-14T05:33:53.714Z,12.37
2019-05-14T05:34:28.309Z,11.85
2019-05-14T05:35:02.488Z,12.23
2019-05-14T05:35:39.226Z,11.50
2019-05-14T05:36:11.930Z,11.38
2019-05-14T05:36:45.536Z,12.45
2019-05-14T05:37:19.508Z,12.18
2019-05-14T05:37:53.294Z,12.35
2019-05-14T05:38:29.208Z,11.30
2019-05-14T05:39:02.501Z,12.53
2019-05-14T05:39:38.381Z,12.05
2019-05-14T05:40:11.909Z,12.85
2019-05-14T05:40:48.414Z,13.22
2019-05-14T05:41:20.975Z,12.30
2019-05-14T05:41:54.945Z,12.45
2019-05-14T05:42:29.583Z,12.30
2019-05-14T05:43:03.405Z,12.43
2019-05-14T05:43:39.084Z,12.07
2019-05-14T05:44:12.711Z,11.93
2019-05-14T05:44:48.317Z,12.93
2019-05-14T05:45:22.100Z,11.80
2019-05-14T05:45:55.700Z,13.03
2019-05-14T05:46:29.518Z,12.50
2019-05-14T05:47:03.618Z,13.78
2019-05-14T05:47:39.129Z,12.93
2019-05-14T05:48:12.800Z,14.43
2019-05-14T05:48:48.206Z,14.07
2019-05-14T05:49:22.431Z,13.10
2019-05-14T05:49:58.174Z,12.73
2019-05-14T05:50:31.482Z,12.15
2019-05-14T05:51:05.450Z,12.75
2019-05-14T05:51:39.427Z,10.85
2019-05-14T05:52:13.544Z,12.70
2019-05-14T05:52:49.776Z,12.70
2019-05-14T05:53:22.593Z,13.08
2019-05-14T05:53:58.634Z,12.55
2019-05-14T05:54:32.182Z,12.20
2019-05-14T05:55:09.147Z,13.32
2019-05-14T05:55:43.454Z,13.25
2019-05-14T05:56:18.656Z,13.68
2019-05-14T05:56:52.707Z,13.60
2019-05-14T05:57:28.396Z,13.80
2019-05-14T05:58:02.018Z,13.60
2019-05-14T05:58:35.866Z,13.22
2019-05-14T05:59:09.883Z,13.28
2019-05-14T05:59:43.483Z,14.73
2019-05-14T06:00:20.517Z,13.88
2019-05-14T06:00:54.480Z,13.53
2019-05-14T06:01:41.828Z,14.93
2019-05-14T06:02:03.586Z,14.73
2019-05-14T06:02:39.868Z,14.53
2019-05-14T06:03:13.169Z,14.75
2019-05-14T06:03:49.007Z,15.08
2019-05-14T06:04:22.242Z,13.68
2019-05-14T06:04:58.500Z,14.83
2019-05-14T06:05:31.662Z,15.03
2019-05-14T06:06:05.644Z,15.00
2019-05-14T06:06:39.237Z,14.93
2019-05-14T06:07:13.027Z,15.53
2019-05-14T06:07:48.256Z,15.68
2019-05-14T06:08:22.465Z,15.43
2019-05-14T06:08:58.197Z,16.20
2019-05-14T06:09:31.520Z,19.73
2019-05-14T06:10:08.005Z,22.65
2019-05-14T06:10:41.919Z,18.90
2019-05-14T06:11:15.524Z,16.97
2019-05-14T06:11:49.493Z,17.07
2019-05-14T06:12:23.282Z,23.02
2019-05-14T06:12:58.547Z,21.70
2019-05-14T06:13:32.258Z,17.12
2019-05-14T06:14:08.155Z,18.92
2019-05-14T06:14:41.662Z,17.15
2019-05-14T06:15:15.657Z,17.45
2019-05-14T06:15:52.158Z,15.18
2019-05-14T06:16:24.709Z,14.85
2019-05-14T06:16:59.053Z,14.03
2019-05-14T06:17:33.060Z,13.38
2019-05-14T06:18:15.038Z,14.58
2019-05-14T06:18:42.290Z,16.45
2019-05-14T06:19:18.369Z,15.72
2019-05-14T06:19:51.765Z,15.65
2019-05-14T06:20:25.376Z,18.82
2019-05-14T06:20:59.171Z,19.27
2019-05-14T06:21:33.160Z,19.32
2019-05-14T06:22:09.537Z,25.08
2019-05-14T06:22:42.232Z,18.82
2019-05-14T06:23:18.741Z,19.30
2019-05-14T06:23:51.831Z,22.52
2019-05-14T06:24:25.639Z,22.75
2019-05-14T06:24:59.232Z,23.38
2019-05-14T06:25:33.202Z,21.82
2019-05-14T06:26:11.257Z,18.65
2019-05-14T06:26:42.619Z,20.20
2019-05-14T06:27:18.186Z,21.73
2019-05-14T06:27:51.679Z,20.32
2019-05-14T06:28:30.115Z,20.30
2019-05-14T06:29:01.270Z,20.68
2019-05-14T06:29:34.680Z,27.27
2019-05-14T06:30:09.227Z,26.77
2019-05-14T06:30:43.560Z,24.02
2019-05-14T06:31:19.240Z,20.88
2019-05-14T06:31:52.593Z,18.73
2019-05-14T06:32:28.868Z,16.27
2019-05-14T06:33:02.032Z,18.50
2019-05-14T06:33:36.012Z,19.02
2019-05-14T06:34:09.745Z,18.23
2019-05-14T06:34:43.585Z,17.77
2019-05-14T06:35:19.325Z,20.25
2019-05-14T06:35:53.327Z,18.57
2019-05-14T06:36:28.930Z,15.50
2019-05-14T06:37:02.361Z,15.13
2019-05-14T06:37:38.300Z,14.18
2019-05-14T06:38:11.766Z,14.47
2019-05-14T06:38:45.388Z,15.15
2019-05-14T06:39:19.356Z,15.40
2019-05-14T06:39:53.147Z,15.68
2019-05-14T06:40:28.675Z,15.18
2019-05-14T06:41:02.311Z,16.15
2019-05-14T06:41:41.927Z,15.88
2019-05-14T06:42:11.708Z,17.23
2019-05-14T06:42:45.679Z,17.62
2019-05-14T06:43:19.133Z,15.55
2019-05-14T06:43:53.075Z,15.60
2019-05-14T06:44:29.501Z,15.60
2019-05-14T06:45:03.406Z,15.15
2019-05-14T06:45:38.841Z,15.95
2019-05-14T06:46:12.603Z,15.13
2019-05-14T06:46:48.586Z,14.18
2019-05-14T06:47:22.015Z,14.93
2019-05-14T06:47:55.604Z,13.15
2019-05-14T06:48:34.474Z,14.50
2019-05-14T06:49:05.010Z,15.43
2019-05-14T06:49:38.996Z,15.43
2019-05-14T06:50:12.436Z,14.90
2019-05-14T06:50:46.417Z,13.90
2019-05-14T06:51:20.413Z,14.03
2019-05-14T06:51:54.164Z,13.40
2019-05-14T06:52:29.142Z,13.48
2019-05-14T06:53:03.433Z,16.30
2019-05-14T06:53:39.286Z,17.37
2019-05-14T06:54:12.916Z,17.73
2019-05-14T06:54:49.341Z,14.90
2019-05-14T06:55:21.985Z,15.08
2019-05-14T06:55:55.972Z,16.65
2019-05-14T06:56:29.945Z,17.82
2019-05-14T06:57:03.357Z,18.75
2019-05-14T06:57:39.402Z,18.02
2019-05-14T06:58:13.299Z,18.17
2019-05-14T06:58:49.105Z,18.00
2019-05-14T06:59:22.327Z,17.17
2019-05-14T06:59:58.741Z,16.70
2019-05-14T07:00:31.805Z,15.25
2019-05-14T07:01:05.792Z,15.72
2019-05-14T07:01:39.418Z,16.67
2019-05-14T07:02:13.278Z,15.83
2019-05-14T07:02:49.134Z,17.17
2019-05-14T07:03:22.865Z,16.12
2019-05-14T07:03:58.066Z,16.23
2019-05-14T07:04:32.254Z,14.00
2019-05-14T07:05:08.401Z,14.10
2019-05-14T07:05:42.648Z,13.80
2019-05-14T07:06:18.653Z,13.25
2019-05-14T07:06:53.070Z,12.40
2019-05-14T07:07:30.160Z,11.08
2019-05-14T07:08:08.735Z,10.60
2019-05-14T07:08:40.756Z,10.15
2019-05-14T07:09:14.582Z,9.33
2019-05-14T07:09:49.015Z,9.63
2019-05-14T07:10:23.541Z,10.43
2019-05-14T07:10:59.210Z,10.28
2019-05-14T07:11:33.079Z,11.10
2019-05-14T07:12:09.167Z,10.08
2019-05-14T07:12:42.551Z,9.88
2019-05-14T07:13:18.978Z,9.90
2019-05-14T07:13:53.161Z,11.33
2019-05-14T07:14:28.311Z,11.35
2019-05-14T07:15:02.463Z,10.70
2019-05-14T07:15:38.461Z,11.00
2019-05-14T07:16:11.495Z,11.10
2019-05-14T07:16:45.468Z,10.43
2019-05-14T07:17:19.449Z,10.78
2019-05-14T07:17:52.862Z,10.68
2019-05-14T07:18:30.191Z,10.40
2019-05-14T07:19:02.503Z,9.28
2019-05-14T07:19:38.284Z,10.10
2019-05-14T07:20:11.540Z,10.30
2019-05-14T07:20:48.109Z,9.43
2019-05-14T07:21:21.320Z,9.35
2019-05-14T07:21:58.099Z,11.50
2019-05-14T07:22:30.729Z,11.18
2019-05-14T07:23:04.551Z,11.03
2019-05-14T07:23:38.738Z,11.80
2019-05-14T07:24:13.032Z,11.50
2019-05-14T07:24:49.374Z,11.53
2019-05-14T07:25:22.784Z,11.80
2019-05-14T07:25:58.846Z,14.07